Time;durP1;ratioP1;P1;durP2;ratioP2;P2;SDS_P1;SDS_P2;PMS_P1;PMS_P2;Temp;Humidity;BMP_temperature;BMP_pressure;BME280_temperature;BME280_humidity;BME280_pressure;Samples;Min_cycle;Max_cycle;Signal;HPM_P1;HPM_P2
2022/02/15 00:00:54;;;;;;;6.00;1.98;;;;;;;-146.41;100.00;57768.22;4945274;28;20069;-67
2022/02/15 00:03:21;;;;;;;4.50;2.15;;;;;;;-146.41;100.00;57768.22;4942256;28;20047;-67
2022/02/15 00:05:49;;;;;;;4.18;1.63;;;;;;;-146.41;100.00;57768.22;4944325;28;20060;-67
2022/02/15 00:08:17;;;;;;;6.88;2.08;;;;;;;-146.41;100.00;57768.22;4939906;28;20085;-67
2022/02/15 00:10:47;;;;;;;8.50;2.42;;;;;;;-146.41;100.00;57768.22;4941210;29;20907;-67
2022/02/15 00:13:14;;;;;;;4.28;2.33;;;;;;;-146.41;100.00;57768.22;4940832;29;20082;-67
2022/02/15 00:15:42;;;;;;;6.22;2.42;;;;;;;-146.41;100.00;57768.22;4942903;29;20575;-67
2022/02/15 00:18:10;;;;;;;7.85;2.40;;;;;;;-146.41;100.00;57768.22;4943353;29;20055;-67
2022/02/15 00:20:37;;;;;;;6.50;1.88;;;;;;;-146.41;100.00;57768.22;4928131;29;20477;-67
2022/02/15 00:23:05;;;;;;;5.65;2.35;;;;;;;-146.41;100.00;57768.22;4945569;29;20047;-67
2022/02/15 00:25:32;;;;;;;11.02;2.33;;;;;;;-146.41;100.00;57768.22;4943047;29;20134;-67
2022/02/15 00:27:59;;;;;;;10.18;3.95;;;;;;;-146.41;100.00;57768.22;4943386;29;20403;-67
2022/02/15 00:30:27;;;;;;;8.07;2.78;;;;;;;-146.41;100.00;57768.22;4942182;28;20158;-67
2022/02/15 00:32:54;;;;;;;7.57;2.95;;;;;;;-146.41;100.00;57768.22;4939788;28;20471;-67
2022/02/15 00:35:22;;;;;;;8.05;2.53;;;;;;;-146.41;100.00;57768.22;4939897;29;20146;-67
2022/02/15 00:37:49;;;;;;;8.60;2.70;;;;;;;-146.41;100.00;57768.22;4943025;29;20043;-67
2022/02/15 00:40:17;;;;;;;6.00;2.40;;;;;;;-146.41;100.00;57768.22;4938947;29;20048;-67
2022/02/15 00:42:44;;;;;;;8.20;2.80;;;;;;;-146.41;100.00;57768.22;4941432;29;20552;-69
2022/02/15 00:45:11;;;;;;;9.27;2.70;;;;;;;-146.41;100.00;57768.22;4942105;28;20062;-67
2022/02/15 00:47:39;;;;;;;12.52;3.40;;;;;;;-146.41;100.00;57768.22;4939607;29;20138;-67
2022/02/15 00:50:09;;;;;;;7.32;2.45;;;;;;;-146.41;100.00;57768.22;4941208;29;20056;-67
2022/02/15 00:52:36;;;;;;;9.30;2.65;;;;;;;-146.41;100.00;57768.22;4941164;29;20075;-67
2022/02/15 00:55:08;;;;;;;11.85;2.60;;;;;;;-146.41;100.00;57768.22;4938298;29;20142;-67
2022/02/15 00:57:37;;;;;;;7.50;2.42;;;;;;;-146.41;100.00;57768.22;4936701;29;20075;-67
2022/02/15 01:00:05;;;;;;;11.05;2.60;;;;;;;-146.41;100.00;57768.22;4941144;29;20063;-67
2022/02/15 01:02:32;;;;;;;4.63;2.33;;;;;;;-146.41;100.00;57768.22;4941203;29;20482;-67
2022/02/15 01:05:00;;;;;;;5.88;2.47;;;;;;;-146.41;100.00;57768.22;4942997;29;20054;-67
2022/02/15 01:07:27;;;;;;;9.23;2.40;;;;;;;-146.41;100.00;57768.22;4941448;29;20058;-67
2022/02/15 01:09:54;;;;;;;8.25;2.63;;;;;;;-146.41;100.00;57768.22;4940006;29;20130;-67
2022/02/15 01:12:24;;;;;;;5.43;2.30;;;;;;;-146.41;100.00;57768.22;4938191;29;20075;-67
2022/02/15 01:14:51;;;;;;;7.57;1.92;;;;;;;-146.41;100.00;57768.22;4942678;29;20093;-67
2022/02/15 01:17:19;;;;;;;8.95;2.65;;;;;;;-146.41;100.00;57768.22;4943070;29;20059;-67
2022/02/15 01:19:46;;;;;;;7.53;2.70;;;;;;;-146.41;100.00;57768.22;4942992;29;20043;-67
2022/02/15 01:22:13;;;;;;;6.35;2.03;;;;;;;-146.41;100.00;57768.22;4943738;29;20130;-67
2022/02/15 01:24:40;;;;;;;9.18;2.90;;;;;;;-146.41;100.00;57768.22;4942306;29;20134;-67
2022/02/15 01:27:08;;;;;;;4.82;1.92;;;;;;;-146.41;100.00;57768.22;4942367;29;20047;-67
2022/02/15 01:29:35;;;;;;;7.22;2.38;;;;;;;-146.41;100.00;57768.22;4939420;29;20090;-67
2022/02/15 01:32:04;;;;;;;8.73;2.25;;;;;;;-146.41;100.00;57768.22;4941203;29;20439;-67
2022/02/15 01:34:31;;;;;;;9.23;2.67;;;;;;;-146.41;100.00;57768.22;4941255;29;20086;-67
2022/02/15 01:36:58;;;;;;;7.70;2.72;;;;;;;-146.41;100.00;57768.22;4940954;29;20131;-67
2022/02/15 01:39:25;;;;;;;7.13;2.40;;;;;;;-146.41;100.00;57768.22;4938832;29;20748;-67
2022/02/15 01:41:54;;;;;;;9.85;3.17;;;;;;;-146.41;100.00;57768.22;4941461;29;20134;-68
2022/02/15 01:44:21;;;;;;;7.75;3.03;;;;;;;-146.41;100.00;57768.22;4940259;28;20479;-67
2022/02/15 01:46:50;;;;;;;6.95;2.63;;;;;;;-146.41;100.00;57768.22;4946301;29;20090;-67
2022/02/15 01:49:17;;;;;;;9.55;2.55;;;;;;;-146.41;100.00;57768.22;4942916;29;20087;-67
2022/02/15 01:51:44;;;;;;;6.38;2.40;;;;;;;-146.41;100.00;57768.22;4939746;29;20134;-67
2022/02/15 01:54:12;;;;;;;6.00;2.58;;;;;;;-146.41;100.00;57768.22;4945000;29;20435;-67
2022/02/15 01:56:39;;;;;;;8.30;3.10;;;;;;;-146.41;100.00;57768.22;4942969;28;20058;-67
2022/02/15 01:59:07;;;;;;;4.53;2.45;;;;;;;-146.41;100.00;57768.22;4943552;29;20147;-67
2022/02/15 02:01:34;;;;;;;7.93;2.80;;;;;;;-146.41;100.00;57768.22;4945038;28;20134;-67
2022/02/15 02:04:02;;;;;;;8.32;3.15;;;;;;;-146.41;100.00;57768.22;4943540;29;20075;-67
2022/02/15 02:06:29;;;;;;;5.28;2.45;;;;;;;-146.41;100.00;57768.22;4941942;29;20086;-67
2022/02/15 02:08:56;;;;;;;5.15;2.95;;;;;;;-146.41;100.00;57768.22;4945974;28;20059;-67
2022/02/15 02:11:24;;;;;;;6.97;2.83;;;;;;;-146.41;100.00;57768.22;4943713;29;20066;-67
2022/02/15 02:13:51;;;;;;;7.82;3.13;;;;;;;-146.41;100.00;57768.22;4943147;28;20499;-67
2022/02/15 02:16:32;;;;;;;5.75;2.60;;;;;;;-146.41;100.00;57768.22;4946058;28;20066;-67
2022/02/15 02:19:00;;;;;;;7.25;3.17;;;;;;;-146.41;100.00;57768.22;4944315;29;20471;-67
2022/02/15 02:21:40;;;;;;;5.53;2.65;;;;;;;-146.41;100.00;57768.22;4942246;28;20067;-67
2022/02/15 02:24:07;;;;;;;6.80;3.10;;;;;;;-146.41;100.00;57768.22;4943247;29;20130;-67
2022/02/15 02:26:35;;;;;;;6.38;3.13;;;;;;;-146.41;100.00;57768.22;4943025;28;20069;-67
2022/02/15 02:29:02;;;;;;;7.53;2.55;;;;;;;-146.41;100.00;57768.22;4940096;28;20416;-67
2022/02/15 02:31:30;;;;;;;8.52;3.20;;;;;;;-146.41;100.00;57768.22;4941242;29;20592;-67
2022/02/15 02:34:00;;;;;;;8.57;3.10;;;;;;;-146.41;100.00;57768.22;4944264;28;20139;-67
2022/02/15 02:36:27;;;;;;;9.27;3.28;;;;;;;-146.41;100.00;57768.22;4944341;29;20126;-67
2022/02/15 02:38:55;;;;;;;7.63;2.95;;;;;;;-146.41;100.00;57768.22;4942081;29;20130;-67
2022/02/15 02:41:22;;;;;;;8.00;3.30;;;;;;;-146.41;100.00;57768.22;4945669;29;20057;-67
2022/02/15 02:43:49;;;;;;;8.27;3.10;;;;;;;-146.41;100.00;57768.22;4943191;29;20127;-67
2022/02/15 02:46:17;;;;;;;5.93;2.90;;;;;;;-146.41;100.00;57768.22;4944134;29;20051;-67
2022/02/15 02:48:44;;;;;;;7.63;3.05;;;;;;;-146.41;100.00;57768.22;4942172;28;20051;-67
2022/02/15 02:51:11;;;;;;;8.15;3.15;;;;;;;-146.41;100.00;57768.22;4946211;29;20051;-67
2022/02/15 02:53:39;;;;;;;7.18;3.47;;;;;;;-146.41;100.00;57768.22;4946827;29;20144;-67
2022/02/15 02:56:06;;;;;;;6.85;3.25;;;;;;;-146.41;100.00;57768.22;4940941;28;20155;-67
2022/02/15 02:58:33;;;;;;;7.63;3.40;;;;;;;-146.41;100.00;57768.22;4942720;29;20146;-67
2022/02/15 03:01:03;;;;;;;8.70;3.75;;;;;;;-146.41;100.00;57768.22;4944078;29;20087;-67
2022/02/15 03:03:31;;;;;;;4.63;3.13;;;;;;;-146.41;100.00;57768.22;4945805;29;20047;-67
2022/02/15 03:05:58;;;;;;;8.10;3.53;;;;;;;-146.41;100.00;57768.22;4943285;29;20083;-67
2022/02/15 03:08:25;;;;;;;9.00;3.97;;;;;;;-146.41;100.00;57768.22;4944578;29;20051;-65
2022/02/15 03:10:53;;;;;;;7.22;3.35;;;;;;;-146.41;100.00;57768.22;4943339;29;20051;-67
2022/02/15 03:13:21;;;;;;;9.50;4.07;;;;;;;-146.41;100.00;57768.22;4943073;29;20062;-67
2022/02/15 03:15:48;;;;;;;8.48;3.80;;;;;;;-146.41;100.00;57768.22;4942647;29;20144;-67
2022/02/15 03:18:17;;;;;;;6.38;3.70;;;;;;;-146.41;100.00;57768.22;4941431;29;20428;-66
2022/02/15 03:20:44;;;;;;;7.63;3.25;;;;;;;-146.41;100.00;57768.22;4940851;29;20134;-67
2022/02/15 03:23:11;;;;;;;6.45;3.85;;;;;;;-146.41;100.00;57768.22;4940334;28;20102;-67
2022/02/15 03:25:39;;;;;;;12.63;4.43;;;;;;;-146.41;100.00;57768.22;4941607;29;20075;-65
2022/02/15 03:28:07;;;;;;;9.07;3.92;;;;;;;-146.41;100.00;57768.22;4939037;29;20110;-67
2022/02/15 03:30:34;;;;;;;8.65;4.32;;;;;;;-146.41;100.00;57768.22;4941334;29;20059;-67
2022/02/15 03:33:01;;;;;;;9.60;5.25;;;;;;;-146.41;100.00;57768.22;4939660;29;20048;-67
2022/02/15 03:35:29;;;;;;;8.50;5.30;;;;;;;-146.41;100.00;57768.22;4943151;28;20075;-67
2022/02/15 03:37:56;;;;;;;8.10;5.03;;;;;;;-146.41;100.00;57768.22;4942215;29;20065;-65
2022/02/15 03:43:04;;;;;;;6.93;4.22;;;;;;;-146.41;100.00;57768.22;4940899;29;20532;-67
2022/02/15 03:43:10;;;;;;;11.68;5.03;;;;;;;-146.41;100.00;57768.22;4944295;28;20139;-67
2022/02/15 03:45:38;;;;;;;7.88;4.13;;;;;;;-146.41;100.00;57768.22;4943172;29;20059;-67
2022/02/15 03:48:06;;;;;;;9.75;5.38;;;;;;;-146.41;100.00;57768.22;4943253;29;20095;-67
2022/02/15 03:50:34;;;;;;;8.60;4.35;;;;;;;-146.41;100.00;57768.22;4943378;29;20044;-67
2022/02/15 03:53:01;;;;;;;9.00;5.38;;;;;;;-146.41;100.00;57768.22;4943194;29;20051;-67
2022/02/15 03:55:28;;;;;;;9.82;4.22;;;;;;;-146.41;100.00;57768.22;4942408;29;20431;-66
2022/02/15 03:57:56;;;;;;;9.32;4.97;;;;;;;-146.41;100.00;57768.22;4945863;29;20074;-65
2022/02/15 04:00:23;;;;;;;6.07;4.15;;;;;;;-146.41;100.00;57768.22;4942573;29;20062;-65
2022/02/15 04:02:50;;;;;;;7.13;4.63;;;;;;;-146.41;100.00;57768.22;4943466;29;20516;-65
2022/02/15 04:05:18;;;;;;;10.07;4.57;;;;;;;-146.41;100.00;57768.22;4943035;29;20134;-65
2022/02/15 04:07:45;;;;;;;6.30;4.00;;;;;;;-146.41;100.00;57768.22;4939608;29;20150;-65
2022/02/15 04:10:12;;;;;;;7.82;5.22;;;;;;;-146.41;100.00;57768.22;4943492;29;20135;-65
2022/02/15 04:12:42;;;;;;;9.70;5.30;;;;;;;-146.41;100.00;57768.22;4940995;29;20187;-65
2022/02/15 04:15:10;;;;;;;9.23;4.97;;;;;;;-146.41;100.00;57768.22;4943872;29;20596;-67
2022/02/15 04:17:38;;;;;;;11.00;5.57;;;;;;;-146.41;100.00;57768.22;4937669;29;20142;-67
2022/02/15 04:20:06;;;;;;;9.75;5.15;;;;;;;-146.41;100.00;57768.22;4942539;29;20492;-67
2022/02/15 04:22:33;;;;;;;8.82;5.57;;;;;;;-146.41;100.00;57768.22;4938274;29;20083;-65
2022/02/15 04:25:02;;;;;;;10.15;5.82;;;;;;;-146.41;100.00;57768.22;4940307;29;20605;-65
2022/02/15 04:27:29;;;;;;;9.77;6.50;;;;;;;-146.41;100.00;57768.22;4939371;29;20134;-66
2022/02/15 04:29:57;;;;;;;8.77;5.85;;;;;;;-146.41;100.00;57768.22;4941473;29;20137;-66
2022/02/15 04:32:25;;;;;;;11.35;6.97;;;;;;;-146.41;100.00;57768.22;4937197;28;20078;-66
2022/02/15 04:34:52;;;;;;;12.02;6.88;;;;;;;-146.41;100.00;57768.22;4943853;28;20107;-66
2022/02/15 04:37:19;;;;;;;11.90;7.18;;;;;;;-146.41;100.00;57768.22;4943875;29;20138;-65
2022/02/15 04:39:47;;;;;;;10.43;6.03;;;;;;;-146.41;100.00;57768.22;4944453;29;20078;-66
2022/02/15 04:42:15;;;;;;;13.38;6.55;;;;;;;-146.41;100.00;57768.22;4941685;29;20082;-66
2022/02/15 04:44:42;;;;;;;11.07;7.13;;;;;;;-146.41;100.00;57768.22;4944104;29;20098;-65
2022/02/15 04:47:10;;;;;;;11.55;7.35;;;;;;;-146.41;100.00;57768.22;4941680;29;20077;-65
2022/02/15 04:49:38;;;;;;;13.27;7.63;;;;;;;-146.41;100.00;57768.22;4943742;28;20141;-65
2022/02/15 04:52:06;;;;;;;17.83;7.53;;;;;;;-146.41;100.00;57768.22;4926747;29;20079;-65
2022/02/15 04:54:33;;;;;;;12.52;7.30;;;;;;;-146.41;100.00;57768.22;4942767;29;20053;-65
2022/02/15 04:57:01;;;;;;;9.60;6.20;;;;;;;-146.41;100.00;57768.22;4940047;29;20059;-65
2022/02/15 04:59:29;;;;;;;11.85;7.07;;;;;;;-146.41;100.00;57768.22;4939075;29;20154;-67
2022/02/15 05:01:57;;;;;;;12.05;7.20;;;;;;;-146.41;100.00;57768.22;4936085;29;20072;-67
2022/02/15 05:07:12;;;;;;;10.60;7.15;;;;;;;-146.41;100.00;57768.22;4941333;28;20064;-65
2022/02/15 05:09:39;;;;;;;9.32;6.97;;;;;;;-146.41;100.00;57768.22;4942653;29;20129;-67
2022/02/15 05:12:07;;;;;;;14.48;7.40;;;;;;;-146.41;100.00;57768.22;4937633;28;20055;-67
2022/02/15 05:14:34;;;;;;;11.90;6.55;;;;;;;-146.41;100.00;57768.22;4939956;29;20050;-67
2022/02/15 05:17:01;;;;;;;12.82;7.72;;;;;;;-146.41;100.00;57768.22;4941531;28;20065;-67
2022/02/15 05:19:31;;;;;;;11.43;7.13;;;;;;;-146.41;100.00;57768.22;4942150;29;20086;-67
2022/02/15 05:21:59;;;;;;;14.20;7.35;;;;;;;-146.41;100.00;57768.22;4945799;29;20147;-67
2022/02/15 05:24:27;;;;;;;11.95;7.55;;;;;;;-146.41;100.00;57768.22;4945372;29;20051;-67
2022/02/15 05:26:54;;;;;;;10.10;6.57;;;;;;;-146.41;100.00;57768.22;4929357;29;20051;-67
2022/02/15 05:29:22;;;;;;;9.40;6.85;;;;;;;-146.41;100.00;57768.22;4944924;29;20056;-67
2022/02/15 05:31:49;;;;;;;11.02;7.05;;;;;;;-146.41;100.00;57768.22;4930749;29;20079;-67
2022/02/15 05:34:17;;;;;;;14.88;7.78;;;;;;;-146.41;100.00;57768.22;4945011;29;20232;-67
2022/02/15 05:36:44;;;;;;;12.07;7.78;;;;;;;-146.41;100.00;57768.22;4931640;29;20201;-67
2022/02/15 05:39:11;;;;;;;11.82;7.22;;;;;;;-146.41;100.00;57768.22;4932812;29;20059;-67
2022/02/15 05:41:38;;;;;;;12.63;8.30;;;;;;;-146.41;100.00;57768.22;4946360;29;20058;-67
2022/02/15 05:44:06;;;;;;;12.57;8.68;;;;;;;-146.41;100.00;57768.22;4945587;29;20043;-65
2022/02/15 05:46:33;;;;;;;11.98;7.70;;;;;;;-146.41;100.00;57768.22;4944542;29;20047;-67
2022/02/15 05:49:02;;;;;;;10.48;7.32;;;;;;;-146.41;100.00;57768.22;4945084;29;20078;-67
2022/02/15 05:51:29;;;;;;;13.98;6.88;;;;;;;-146.41;100.00;57768.22;4944618;28;20139;-67
2022/02/15 05:53:57;;;;;;;12.88;7.88;;;;;;;-146.41;100.00;57768.22;4945928;29;20135;-65
2022/02/15 05:56:24;;;;;;;11.30;8.23;;;;;;;-146.41;100.00;57768.22;4944375;29;20138;-67
2022/02/15 05:58:51;;;;;;;15.35;8.82;;;;;;;-146.41;100.00;57768.22;4943122;29;20466;-68
2022/02/15 06:01:19;;;;;;;11.27;7.97;;;;;;;-146.41;100.00;57768.22;4943391;29;20256;-67
2022/02/15 06:06:32;;;;;;;13.00;9.07;;;;;;;-146.41;100.00;57768.22;4945916;29;20166;-67
2022/02/15 06:09:01;;;;;;;14.40;9.80;;;;;;;-146.41;100.00;57768.22;4943228;29;20057;-65
2022/02/15 06:11:28;;;;;;;14.25;9.52;;;;;;;-146.41;100.00;57768.22;4942701;29;20130;-67
2022/02/15 06:13:57;;;;;;;16.02;9.55;;;;;;;-146.41;100.00;57768.22;4944607;29;20456;-68
2022/02/15 06:16:25;;;;;;;13.77;9.10;;;;;;;-146.41;100.00;57768.22;4940290;29;20432;-66
2022/02/15 06:18:55;;;;;;;12.82;10.00;;;;;;;-146.41;100.00;57768.22;4922505;29;20047;-67
2022/02/15 06:21:23;;;;;;;13.07;9.60;;;;;;;-146.41;100.00;57768.22;4945021;29;20138;-67
2022/02/15 06:23:51;;;;;;;12.43;8.40;;;;;;;-146.41;100.00;57768.22;4944971;29;20114;-67
2022/02/15 06:26:18;;;;;;;10.38;7.43;;;;;;;-146.41;100.00;57768.22;4943292;29;20074;-67
2022/02/15 06:28:45;;;;;;;11.93;8.30;;;;;;;-146.41;100.00;57768.22;4943489;28;20157;-67
2022/02/15 06:31:13;;;;;;;11.73;6.32;;;;;;;-146.41;100.00;57768.22;4945737;29;20059;-67
2022/02/15 06:33:40;;;;;;;9.88;6.20;;;;;;;-146.41;100.00;57768.22;4929216;29;20047;-67
2022/02/15 06:36:12;;;;;;;12.10;7.47;;;;;;;-146.41;100.00;57768.22;4944777;29;20055;-67
2022/02/15 06:38:39;;;;;;;9.55;5.38;;;;;;;-146.41;100.00;57768.22;4941760;29;20138;-68
2022/02/15 06:41:08;;;;;;;10.98;5.70;;;;;;;-146.41;100.00;57768.22;4941721;29;20198;-68
2022/02/15 06:43:36;;;;;;;9.23;6.60;;;;;;;-146.41;100.00;57768.22;4945252;29;20130;-68
2022/02/15 06:46:03;;;;;;;10.50;5.93;;;;;;;-146.41;100.00;57768.22;4946406;29;20052;-68
2022/02/15 06:48:30;;;;;;;10.27;6.30;;;;;;;-146.41;100.00;57768.22;4938970;29;20446;-68
2022/02/15 06:50:58;;;;;;;12.23;6.50;;;;;;;-146.41;100.00;57768.22;4946246;28;20170;-67
2022/02/15 06:53:26;;;;;;;12.45;5.82;;;;;;;-146.41;100.00;57768.22;4944368;29;20060;-67
2022/02/15 06:56:09;;;;;;;10.77;5.07;;;;;;;-146.41;100.00;57768.22;4939782;29;20102;-67
2022/02/15 06:58:37;;;;;;;11.30;6.07;;;;;;;-146.41;100.00;57768.22;4944692;29;20071;-67
2022/02/15 07:01:05;;;;;;;9.38;6.05;;;;;;;-146.41;100.00;57768.22;4941946;29;20051;-67
2022/02/15 07:03:35;;;;;;;11.75;5.18;;;;;;;-146.41;100.00;57768.22;4943916;29;20126;-67
2022/02/15 07:06:03;;;;;;;12.55;6.22;;;;;;;-146.41;100.00;57768.22;4944115;29;20079;-67
2022/02/15 07:08:31;;;;;;;10.43;4.35;;;;;;;-146.41;100.00;57768.22;4940089;29;20134;-67
2022/02/15 07:10:59;;;;;;;8.18;4.15;;;;;;;-146.41;100.00;57768.22;4945149;29;20153;-65
2022/02/15 07:13:26;;;;;;;10.23;4.68;;;;;;;-146.41;100.00;57768.22;4946109;29;20059;-67
2022/02/15 07:15:54;;;;;;;8.88;4.00;;;;;;;-146.41;100.00;57768.22;4942989;29;20043;-67
2022/02/15 07:18:26;;;;;;;7.97;3.55;;;;;;;-146.41;100.00;57768.22;4943587;28;20078;-68
2022/02/15 07:20:53;;;;;;;8.77;4.40;;;;;;;-146.41;100.00;57768.22;4941322;29;20503;-68
2022/02/15 07:23:21;;;;;;;8.45;4.93;;;;;;;-146.41;100.00;57768.22;4943334;29;20221;-67
2022/02/15 07:25:48;;;;;;;12.63;4.90;;;;;;;-146.41;100.00;57768.22;4927959;29;20048;-67
2022/02/15 07:28:15;;;;;;;6.82;4.68;;;;;;;-146.41;100.00;57768.22;4943348;28;21721;-67
2022/02/15 07:30:43;;;;;;;11.45;5.20;;;;;;;-146.41;100.00;57768.22;4928898;29;20075;-67
2022/02/15 07:33:10;;;;;;;11.38;5.38;;;;;;;-146.41;100.00;57768.22;4942698;29;20461;-67
2022/02/15 07:35:37;;;;;;;8.75;4.72;;;;;;;-146.41;100.00;57768.22;4941655;29;20146;-67
2022/02/15 07:38:05;;;;;;;12.93;6.15;;;;;;;-146.41;100.00;57768.22;4943059;29;20097;-67
2022/02/15 07:40:32;;;;;;;7.35;4.55;;;;;;;-146.41;100.00;57768.22;4945056;29;20204;-67
2022/02/15 07:43:00;;;;;;;11.77;4.95;;;;;;;-146.41;100.00;57768.22;4941162;28;20139;-67
2022/02/15 07:45:28;;;;;;;10.98;5.20;;;;;;;-146.41;100.00;57768.22;4943256;28;20059;-67
2022/02/15 07:47:55;;;;;;;7.18;3.55;;;;;;;-146.41;100.00;57768.22;4940151;29;20135;-67
2022/02/15 07:50:24;;;;;;;8.95;4.72;;;;;;;-146.41;100.00;57768.22;4941597;29;20763;-67
2022/02/15 07:52:53;;;;;;;6.20;3.22;;;;;;;-146.41;100.00;57768.22;4926594;29;20078;-67
2022/02/15 07:55:21;;;;;;;7.78;4.32;;;;;;;-146.41;100.00;57768.22;4946115;29;20507;-67
2022/02/15 07:57:48;;;;;;;9.90;4.10;;;;;;;-146.41;100.00;57768.22;4943681;28;20055;-67
2022/02/15 08:00:21;;;;;;;11.15;3.40;;;;;;;-146.41;100.00;57768.22;4941962;28;20082;-67
2022/02/15 08:02:52;;;;;;;9.15;3.50;;;;;;;-146.41;100.00;57768.22;4926832;29;20716;-67
2022/02/15 08:05:21;;;;;;;10.50;3.77;;;;;;;-146.41;100.00;57768.22;4941825;29;20415;-67
2022/02/15 08:07:50;;;;;;;6.10;3.15;;;;;;;-146.41;100.00;57768.22;4926111;29;20073;-67
2022/02/15 08:10:18;;;;;;;9.93;2.70;;;;;;;-146.41;100.00;57768.22;4944577;28;20054;-67
2022/02/15 08:12:48;;;;;;;7.60;2.40;;;;;;;-146.41;100.00;57768.22;4940030;29;20090;-67
2022/02/15 08:15:15;;;;;;;5.07;2.45;;;;;;;-146.41;100.00;57768.22;4929739;29;20047;-68
2022/02/15 08:17:43;;;;;;;6.15;2.67;;;;;;;-146.41;100.00;57768.22;4940944;29;20475;-67
2022/02/15 08:20:10;;;;;;;5.75;2.53;;;;;;;-146.41;100.00;57768.22;4941834;28;20527;-67
2022/02/15 08:22:39;;;;;;;5.75;2.95;;;;;;;-146.41;100.00;57768.22;4939018;28;20066;-67
2022/02/15 08:25:08;;;;;;;7.03;2.70;;;;;;;-146.41;100.00;57768.22;4924357;29;20057;-67
2022/02/15 08:27:36;;;;;;;6.13;2.60;;;;;;;-146.41;100.00;57768.22;4941786;28;20070;-67
2022/02/15 08:30:04;;;;;;;4.85;2.33;;;;;;;-146.41;100.00;57768.22;4942402;29;20074;-67
2022/02/15 08:32:31;;;;;;;8.45;3.33;;;;;;;-146.41;100.00;57768.22;4941821;29;20055;-67
2022/02/15 08:34:59;;;;;;;6.22;3.28;;;;;;;-146.41;100.00;57768.22;4939462;29;20050;-67
2022/02/15 08:37:26;;;;;;;6.15;2.85;;;;;;;-146.41;100.00;57768.22;4926847;29;20142;-67
2022/02/15 08:39:53;;;;;;;6.40;2.92;;;;;;;-146.41;100.00;57768.22;4941326;29;20097;-66
2022/02/15 08:42:21;;;;;;;8.75;3.55;;;;;;;-146.41;100.00;57768.22;4941201;29;20066;-66
2022/02/15 08:44:53;;;;;;;6.97;3.72;;;;;;;-146.41;100.00;57768.22;4940414;29;20091;-67
2022/02/15 08:47:24;;;;;;;7.03;3.30;;;;;;;-146.41;100.00;57768.22;4940864;29;20059;-67
2022/02/15 08:49:52;;;;;;;7.15;3.55;;;;;;;-146.41;100.00;57768.22;4928304;29;20123;-67
2022/02/15 08:52:30;;;;;;;9.30;3.33;;;;;;;-146.41;100.00;57768.22;4941579;29;20079;-67
2022/02/15 08:54:57;;;;;;;8.55;2.97;;;;;;;-146.41;100.00;57768.22;4926223;29;20535;-67
2022/02/15 08:57:25;;;;;;;7.93;3.60;;;;;;;-146.41;100.00;57768.22;4939879;29;20133;-67
2022/02/15 08:59:53;;;;;;;8.07;4.07;;;;;;;-146.41;100.00;57768.22;4938465;29;20176;-66
2022/02/15 09:02:24;;;;;;;6.95;4.13;;;;;;;-146.41;100.00;57768.22;4939353;29;20051;-67
2022/02/15 09:04:52;;;;;;;7.88;5.20;;;;;;;-146.41;100.00;57768.22;4943556;29;20564;-67
2022/02/15 09:07:20;;;;;;;10.40;4.63;;;;;;;-146.41;100.00;57768.22;4938557;29;20055;-67
2022/02/15 09:09:47;;;;;;;7.43;4.63;;;;;;;-146.41;100.00;57768.22;4938829;29;20066;-67
2022/02/15 09:12:14;;;;;;;8.57;4.50;;;;;;;-146.41;100.00;57768.22;4939969;29;20054;-67
2022/02/15 09:14:42;;;;;;;11.77;5.38;;;;;;;-146.41;100.00;57768.22;4939485;29;20051;-66
2022/02/15 09:17:09;;;;;;;9.27;5.10;;;;;;;-146.41;100.00;57768.22;4941048;29;20063;-66
2022/02/15 09:19:37;;;;;;;9.30;4.75;;;;;;;-146.41;100.00;57768.22;4934188;29;20578;-67
2022/02/15 09:22:05;;;;;;;18.45;9.25;;;;;;;-146.41;100.00;57768.22;4943646;29;20691;-67
2022/02/15 09:24:32;;;;;;;11.82;5.72;;;;;;;-146.41;100.00;57768.22;4938219;29;20154;-67
2022/02/15 09:26:59;;;;;;;10.98;3.90;;;;;;;-146.41;100.00;57768.22;4943332;29;20051;-66
2022/02/15 09:29:27;;;;;;;17.95;7.88;;;;;;;-146.41;100.00;57768.22;4942643;29;20090;-67
2022/02/15 09:31:55;;;;;;;17.70;8.18;;;;;;;-146.41;100.00;57768.22;4939433;29;20074;-66
2022/02/15 09:34:23;;;;;;;11.20;4.85;;;;;;;-146.41;100.00;57768.22;4937633;29;20129;-67
2022/02/15 09:36:51;;;;;;;30.13;16.52;;;;;;;-146.41;100.00;57768.22;4941477;29;20054;-66
2022/02/15 09:39:19;;;;;;;15.23;6.68;;;;;;;-146.41;100.00;57768.22;4943034;29;20386;-66
2022/02/15 09:41:47;;;;;;;11.88;4.57;;;;;;;-146.41;100.00;57768.22;4944413;29;20153;-66
2022/02/15 09:44:15;;;;;;;22.67;12.20;;;;;;;-146.41;100.00;57768.22;4940180;29;20134;-66
2022/02/15 09:46:44;;;;;;;16.33;8.32;;;;;;;-146.41;100.00;57768.22;4939549;29;20137;-67
2022/02/15 09:52:23;;;;;;;10.15;5.53;;;;;;;-146.41;100.00;57768.22;4907558;29;20052;-67
2022/02/15 09:54:52;;;;;;;11.60;5.10;;;;;;;-146.41;100.00;57768.22;4925519;29;20697;-66
2022/02/15 09:57:21;;;;;;;12.57;5.47;;;;;;;-146.41;100.00;57768.22;4937943;29;20052;-67
2022/02/15 09:59:50;;;;;;;15.02;8.05;;;;;;;-146.41;100.00;57768.22;4938264;29;20472;-66
2022/02/15 10:02:35;;;;;;;9.25;4.40;;;;;;;-146.41;100.00;57768.22;4941285;29;20498;-66
2022/02/15 10:05:04;;;;;;;7.03;3.13;;;;;;;-146.41;100.00;57768.22;4941815;28;20039;-68
2022/02/15 10:07:32;;;;;;;5.35;2.50;;;;;;;-146.41;100.00;57768.22;4939527;29;20226;-67
2022/02/15 10:09:59;;;;;;;4.93;2.28;;;;;;;-146.41;100.00;57768.22;4923581;29;20069;-67
2022/02/15 10:12:28;;;;;;;8.90;3.55;;;;;;;-146.41;100.00;57768.22;4942376;29;20182;-67
2022/02/15 10:14:56;;;;;;;14.63;5.10;;;;;;;-146.41;100.00;57768.22;4940608;29;20043;-67
2022/02/15 10:17:24;;;;;;;6.57;1.73;;;;;;;-146.41;100.00;57768.22;4941960;28;20055;-67
2022/02/15 10:19:55;;;;;;;5.53;1.60;;;;;;;-146.41;100.00;57768.22;4944001;29;20074;-66
2022/02/15 10:22:23;;;;;;;4.68;1.50;;;;;;;-146.41;100.00;57768.22;4947948;29;20178;-66
2022/02/15 10:24:53;;;;;;;2.45;1.00;;;;;;;-146.41;100.00;57768.22;4942492;29;20067;-66
2022/02/15 10:27:28;;;;;;;4.93;1.15;;;;;;;-146.41;100.00;57768.22;4943975;29;20480;-67
2022/02/15 10:29:56;;;;;;;3.03;1.00;;;;;;;-146.41;100.00;57768.22;4943789;29;20090;-66
2022/02/15 10:32:25;;;;;;;4.70;1.20;;;;;;;-146.41;100.00;57768.22;4944999;29;20096;-67
2022/02/15 10:34:57;;;;;;;9.38;4.25;;;;;;;-146.41;100.00;57768.22;4944924;29;20099;-67
2022/02/15 10:37:27;;;;;;;6.63;2.67;;;;;;;-146.41;100.00;57768.22;4941372;28;20051;-67
2022/02/15 10:39:57;;;;;;;6.90;2.63;;;;;;;-146.41;100.00;57768.22;4943840;28;20776;-67
2022/02/15 10:42:27;;;;;;;8.55;4.43;;;;;;;-146.41;100.00;57768.22;4943786;29;20471;-66
2022/02/15 10:45:01;;;;;;;5.35;1.65;;;;;;;-146.41;100.00;57768.22;4944899;29;20138;-65
2022/02/15 10:47:32;;;;;;;6.70;3.00;;;;;;;-146.41;100.00;57768.22;4941607;29;20051;-66
2022/02/15 10:50:02;;;;;;;13.48;5.78;;;;;;;-146.41;100.00;57768.22;4945270;28;20138;-66
2022/02/15 10:52:30;;;;;;;9.40;4.57;;;;;;;-146.41;100.00;57768.22;4943520;29;20059;-66
2022/02/15 10:54:57;;;;;;;12.98;4.82;;;;;;;-146.41;100.00;57768.22;4940148;29;20071;-66
2022/02/15 10:57:26;;;;;;;15.43;7.03;;;;;;;-146.41;100.00;57768.22;4944360;29;20150;-66
2022/02/15 10:59:54;;;;;;;6.97;3.60;;;;;;;-146.41;100.00;57768.22;4944439;29;20106;-66
2022/02/15 11:02:26;;;;;;;10.15;5.75;;;;;;;-146.41;100.00;57768.22;4929117;29;20445;-66
2022/02/15 11:04:55;;;;;;;8.70;4.50;;;;;;;-146.41;100.00;57768.22;4944830;28;20210;-66
2022/02/15 11:07:28;;;;;;;10.07;3.00;;;;;;;-146.41;100.00;57768.22;4942735;29;20345;-66
2022/02/15 11:09:58;;;;;;;7.47;2.80;;;;;;;-146.41;100.00;57768.22;4926232;29;20102;-66
2022/02/15 11:12:35;;;;;;;19.63;8.95;;;;;;;-146.41;100.00;57768.22;4942446;29;20055;-66
2022/02/15 11:15:07;;;;;;;10.00;4.03;;;;;;;-146.41;100.00;57768.22;4948058;28;20053;-66
2022/02/15 11:17:35;;;;;;;8.90;4.70;;;;;;;-146.41;100.00;57768.22;4943196;28;20051;-66
2022/02/15 11:20:06;;;;;;;10.98;4.57;;;;;;;-146.41;100.00;57768.22;4941200;29;20069;-66